createdAt,value
2023-11-20T00:01:26.172Z,2.47
2023-11-20T00:03:54.881Z,2.48
2023-11-20T00:06:23.023Z,2.49
2023-11-20T00:08:51.025Z,2.50
2023-11-20T00:11:19.046Z,2.53
2023-11-20T00:13:47.252Z,2.53
2023-11-20T00:16:15.358Z,2.51
2023-11-20T00:18:43.394Z,2.49
2023-11-20T00:21:11.556Z,2.49
2023-11-20T00:23:40.171Z,2.50
2023-11-20T00:26:15.658Z,2.51
2023-11-20T00:28:43.759Z,2.52
2023-11-20T00:31:18.901Z,2.51
2023-11-20T00:33:46.872Z,2.46
2023-11-20T00:36:14.885Z,2.45
2023-11-20T00:38:43.142Z,2.43
2023-11-20T00:41:11.197Z,2.41
2023-11-20T00:43:40.744Z,2.43
2023-11-20T00:46:09.108Z,2.44
2023-11-20T00:48:37.280Z,2.47
2023-11-20T00:51:05.612Z,2.49
2023-11-20T00:53:33.549Z,2.52
2023-11-20T00:56:01.528Z,2.53
2023-11-20T00:58:29.536Z,2.57
2023-11-20T01:00:59.480Z,2.58
2023-11-20T01:03:28.620Z,2.57
2023-11-20T01:05:56.922Z,2.59
2023-11-20T01:08:24.913Z,2.62
2023-11-20T01:10:52.920Z,2.61
2023-11-20T01:13:20.841Z,2.61
2023-11-20T01:15:48.909Z,2.61
2023-11-20T01:18:17.437Z,2.63
2023-11-20T01:20:46.157Z,2.66
2023-11-20T01:23:14.078Z,2.69
2023-11-20T01:25:42.211Z,2.69
2023-11-20T01:28:10.372Z,2.67
2023-11-20T01:30:38.365Z,2.66
2023-11-20T01:33:06.423Z,2.67
2023-11-20T01:35:34.419Z,2.69
2023-11-20T01:38:02.495Z,2.70
2023-11-20T01:40:30.478Z,2.72
2023-11-20T01:42:58.579Z,2.70
2023-11-20T01:45:26.544Z,2.71
2023-11-20T01:47:54.694Z,2.72
2023-11-20T01:50:22.794Z,2.72
2023-11-20T01:52:51.925Z,2.71
2023-11-20T01:55:21.513Z,2.71
2023-11-20T01:57:51.672Z,2.71
2023-11-20T02:00:20.891Z,2.68
2023-11-20T02:02:51.466Z,2.65
2023-11-20T02:05:20.893Z,2.64
2023-11-20T02:07:48.902Z,2.62
2023-11-20T02:10:19.028Z,2.63
2023-11-20T02:12:47.387Z,2.64
2023-11-20T02:15:15.732Z,2.65
2023-11-20T02:17:43.800Z,2.64
2023-11-20T02:20:12.114Z,2.64
2023-11-20T02:22:40.141Z,2.64
2023-11-20T02:25:09.035Z,2.65
2023-11-20T02:28:17.102Z,2.66
2023-11-20T02:30:45.394Z,2.66
2023-11-20T02:33:13.635Z,2.68
2023-11-20T02:35:41.728Z,2.69
2023-11-20T02:38:09.695Z,2.68
2023-11-20T02:40:38.022Z,2.66
2023-11-20T02:43:06.879Z,2.67
2023-11-20T02:45:36.533Z,2.70
2023-11-20T02:48:05.362Z,2.72
2023-11-20T02:50:35.479Z,2.73
2023-11-20T02:53:03.505Z,2.74
2023-11-20T02:55:31.875Z,2.74
2023-11-20T02:58:01.489Z,2.77
2023-11-20T03:00:29.512Z,2.79
2023-11-20T03:02:57.550Z,2.75
2023-11-20T03:05:25.715Z,2.69
2023-11-20T03:07:53.736Z,2.68
2023-11-20T03:10:22.273Z,2.70
2023-11-20T03:12:50.315Z,2.73
2023-11-20T03:15:18.346Z,2.72
2023-11-20T03:17:46.381Z,2.69
2023-11-20T03:20:14.564Z,2.68
2023-11-20T03:22:42.619Z,2.69
2023-11-20T03:25:10.957Z,2.72
2023-11-20T03:27:40.509Z,2.75
2023-11-20T03:30:10.509Z,2.78
2023-11-20T03:32:38.541Z,2.80
2023-11-20T03:35:06.897Z,2.79
2023-11-20T03:37:35.575Z,2.77
2023-11-20T03:40:05.280Z,2.75
2023-11-20T03:42:33.339Z,2.75
2023-11-20T03:45:02.285Z,2.75
2023-11-20T03:47:30.262Z,2.77
2023-11-20T03:49:58.245Z,2.79
2023-11-20T03:52:27.666Z,2.81
2023-11-20T03:54:55.780Z,2.79
2023-11-20T03:57:23.999Z,2.81
2023-11-20T03:59:52.001Z,2.81
2023-11-20T04:02:20.354Z,2.81
2023-11-20T04:04:48.405Z,2.81
2023-11-20T04:07:16.453Z,2.85
2023-11-20T04:09:44.440Z,2.84
2023-11-20T04:12:12.493Z,2.82
2023-11-20T04:14:40.518Z,2.83
2023-11-20T04:17:09.112Z,2.84
2023-11-20T04:19:37.567Z,2.83
2023-11-20T04:22:08.736Z,2.82
2023-11-20T04:24:37.046Z,2.83
2023-11-20T04:27:05.372Z,2.86
2023-11-20T04:29:33.238Z,2.88
2023-11-20T04:32:01.240Z,2.86
2023-11-20T04:34:29.257Z,2.87
2023-11-20T04:36:57.285Z,2.88
2023-11-20T04:39:25.235Z,2.89
2023-11-20T04:41:53.271Z,2.87
2023-11-20T04:44:21.269Z,2.90
2023-11-20T04:46:49.246Z,2.88
2023-11-20T04:49:17.217Z,2.88
2023-11-20T04:51:45.280Z,2.88
2023-11-20T04:54:13.352Z,2.89
2023-11-20T04:56:41.450Z,2.89
2023-11-20T04:59:10.469Z,2.90
2023-11-20T05:01:38.665Z,2.89
2023-11-20T05:04:07.085Z,2.89
2023-11-20T05:06:35.099Z,2.91
2023-11-20T05:09:03.422Z,2.92
2023-11-20T05:11:31.459Z,2.93
2023-11-20T05:14:00.834Z,2.94
2023-11-20T05:16:30.141Z,2.95
2023-11-20T05:18:58.306Z,2.97
2023-11-20T05:21:26.310Z,2.96
2023-11-20T05:23:54.284Z,2.94
2023-11-20T05:26:22.415Z,2.94
2023-11-20T05:28:52.403Z,2.97
2023-11-20T05:31:20.446Z,2.99
2023-11-20T05:33:48.962Z,2.99
2023-11-20T05:36:17.084Z,3.01
2023-11-20T05:38:45.080Z,3.01
2023-11-20T05:41:13.196Z,3.00
2023-11-20T05:43:41.905Z,3.00
2023-11-20T05:46:09.977Z,3.00
2023-11-20T05:48:38.529Z,3.01
2023-11-20T05:51:06.636Z,3.02
2023-11-20T05:53:34.733Z,3.03
2023-11-20T05:56:03.233Z,3.02
2023-11-20T05:58:31.369Z,2.99
2023-11-20T06:00:59.840Z,2.98
2023-11-20T06:03:27.996Z,2.97
2023-11-20T06:05:56.056Z,2.95
2023-11-20T06:08:24.586Z,2.96
2023-11-20T06:10:52.508Z,2.96
2023-11-20T06:13:20.632Z,2.99
2023-11-20T06:15:48.638Z,2.97
2023-11-20T06:18:16.661Z,2.94
2023-11-20T06:20:44.883Z,2.93
2023-11-20T06:23:13.668Z,2.92
2023-11-20T06:25:41.628Z,2.93
2023-11-20T06:28:09.593Z,2.95
2023-11-20T06:30:37.802Z,2.98
2023-11-20T06:33:06.258Z,3.02
2023-11-20T06:35:34.216Z,3.04
2023-11-20T06:38:02.156Z,3.03
2023-11-20T06:40:30.311Z,3.11
2023-11-20T06:42:58.748Z,3.58
2023-11-20T06:45:26.717Z,3.98
2023-11-20T06:47:54.704Z,4.24
2023-11-20T06:50:22.780Z,4.28
2023-11-20T06:52:53.380Z,4.18
2023-11-20T06:55:22.849Z,4.09
2023-11-20T06:57:51.127Z,3.92
2023-11-20T07:00:20.002Z,3.81
2023-11-20T07:02:48.649Z,3.71
2023-11-20T07:05:17.856Z,3.59
2023-11-20T07:07:55.117Z,3.49
2023-11-20T07:10:24.743Z,3.41
2023-11-20T07:12:58.052Z,3.33
2023-11-20T07:15:26.255Z,3.27
2023-11-20T07:17:54.360Z,3.24
2023-11-20T07:20:23.047Z,3.20
2023-11-20T07:22:51.262Z,3.15
2023-11-20T07:25:19.309Z,3.15
2023-11-20T07:27:47.315Z,3.16
2023-11-20T07:30:16.172Z,3.14
2023-11-20T07:32:45.235Z,3.14
2023-11-20T07:35:14.707Z,3.13
2023-11-20T07:37:43.588Z,3.11
2023-11-20T07:40:13.235Z,3.10
2023-11-20T07:42:42.223Z,3.07
2023-11-20T07:45:12.462Z,3.06
2023-11-20T07:47:41.801Z,3.04
2023-11-20T07:50:12.259Z,3.05
2023-11-20T07:52:40.571Z,3.05
2023-11-20T07:55:09.759Z,3.06
2023-11-20T07:57:38.131Z,3.09
2023-11-20T08:00:07.200Z,3.09
2023-11-20T08:02:35.441Z,3.09
2023-11-20T08:05:06.627Z,3.09
2023-11-20T08:07:35.000Z,3.10
2023-11-20T08:10:06.610Z,3.12
2023-11-20T08:12:35.986Z,3.15
2023-11-20T08:15:07.044Z,3.16
2023-11-20T08:17:36.028Z,3.16
2023-11-20T08:20:07.777Z,3.15
2023-11-20T08:22:37.221Z,3.16
2023-11-20T08:25:05.897Z,3.19
2023-11-20T08:27:33.957Z,3.19
2023-11-20T08:30:02.363Z,3.18
2023-11-20T08:32:30.389Z,3.18
2023-11-20T08:34:58.588Z,3.19
2023-11-20T08:37:26.618Z,3.19
2023-11-20T08:39:54.542Z,3.22
2023-11-20T08:42:23.677Z,3.23
2023-11-20T08:44:51.683Z,3.24
2023-11-20T08:47:19.803Z,3.26
2023-11-20T08:49:47.980Z,3.28
2023-11-20T08:52:16.416Z,3.30
2023-11-20T08:54:44.495Z,3.28
2023-11-20T08:57:12.474Z,3.27
2023-11-20T08:59:40.505Z,3.26
2023-11-20T09:02:08.549Z,3.28
2023-11-20T09:04:36.577Z,3.27
2023-11-20T09:07:04.957Z,3.26
2023-11-20T09:09:32.956Z,3.27
2023-11-20T09:12:02.203Z,3.26
2023-11-20T09:14:30.380Z,3.27
2023-11-20T09:16:59.000Z,3.27
2023-11-20T09:19:27.660Z,3.29
2023-11-20T09:21:55.677Z,3.31
2023-11-20T09:24:23.692Z,3.32
2023-11-20T09:26:51.642Z,3.29
2023-11-20T09:29:19.709Z,3.30
2023-11-20T09:31:49.353Z,3.33
2023-11-20T09:34:20.107Z,3.37
2023-11-20T09:36:48.202Z,3.40
2023-11-20T09:39:16.243Z,3.43
2023-11-20T09:41:44.535Z,3.46
2023-11-20T09:44:13.807Z,3.48
2023-11-20T09:46:45.884Z,3.50
2023-11-20T09:49:24.150Z,3.53
2023-11-20T09:51:58.057Z,3.57
2023-11-20T09:54:26.612Z,3.58
2023-11-20T09:56:55.101Z,3.54
2023-11-20T09:59:23.148Z,3.54
2023-11-20T10:01:53.230Z,3.53
2023-11-20T10:04:25.553Z,3.52
2023-11-20T10:06:56.194Z,3.51
2023-11-20T10:09:25.341Z,3.55
2023-11-20T10:11:57.976Z,3.58
2023-11-20T10:14:25.952Z,3.58
2023-11-20T10:16:55.083Z,3.61
2023-11-20T10:19:23.487Z,3.65
2023-11-20T10:21:52.641Z,3.65
2023-11-20T10:24:20.687Z,3.65
2023-11-20T10:26:48.813Z,3.66
2023-11-20T10:29:17.430Z,3.67
2023-11-20T10:31:48.144Z,3.68
2023-11-20T10:34:19.192Z,3.65
2023-11-20T10:37:06.006Z,3.66
2023-11-20T10:39:34.247Z,3.67
2023-11-20T10:42:03.071Z,3.70
2023-11-20T10:44:33.061Z,3.70
2023-11-20T10:47:01.286Z,3.68
2023-11-20T10:49:37.059Z,3.66
2023-11-20T10:52:16.931Z,3.68
2023-11-20T10:54:49.725Z,3.73
2023-11-20T10:57:19.815Z,3.77
2023-11-20T10:59:48.676Z,3.79
2023-11-20T11:02:21.591Z,3.79
2023-11-20T11:04:55.922Z,3.77
2023-11-20T11:07:26.281Z,3.76
2023-11-20T11:09:54.807Z,3.78
2023-11-20T11:12:33.142Z,3.75
2023-11-20T11:15:01.189Z,3.70
2023-11-20T11:17:34.901Z,3.70
2023-11-20T11:20:11.209Z,3.72
2023-11-20T11:22:45.286Z,3.71
2023-11-20T11:25:15.464Z,3.70
2023-11-20T11:27:58.070Z,3.69
2023-11-20T11:30:32.269Z,3.68
2023-11-20T11:33:34.034Z,3.71
2023-11-20T11:36:10.326Z,3.76
2023-11-20T11:38:42.457Z,3.79
2023-11-20T11:41:39.066Z,3.78
2023-11-20T11:44:23.433Z,3.78
2023-11-20T11:46:52.082Z,3.78
2023-11-20T11:49:24.624Z,3.75
2023-11-20T11:52:05.148Z,3.74
2023-11-20T11:54:33.706Z,3.72
2023-11-20T11:57:14.495Z,3.73
2023-11-20T11:59:47.067Z,3.72
2023-11-20T12:02:20.015Z,3.72
2023-11-20T12:04:51.321Z,3.73
2023-11-20T12:07:37.879Z,3.75
2023-11-20T12:10:13.502Z,3.75
2023-11-20T12:12:49.571Z,3.76
2023-11-20T12:15:37.501Z,3.76
2023-11-20T12:18:22.609Z,3.74
2023-11-20T12:20:56.765Z,3.71
2023-11-20T12:23:24.666Z,3.70
2023-11-20T12:25:57.624Z,3.68
2023-11-20T12:28:29.115Z,3.67
2023-11-20T12:30:57.086Z,3.66
2023-11-20T12:33:25.077Z,3.62
2023-11-20T12:35:56.936Z,3.61
2023-11-20T12:38:25.612Z,3.62
2023-11-20T12:40:55.735Z,3.62
2023-11-20T12:43:25.680Z,3.60
2023-11-20T12:45:53.969Z,3.58
2023-11-20T12:48:22.209Z,3.56
2023-11-20T12:50:51.124Z,3.57
2023-11-20T12:53:21.125Z,3.58
2023-11-20T12:55:54.523Z,3.61
2023-11-20T12:58:23.279Z,3.64
2023-11-20T13:00:54.490Z,3.63
2023-11-20T13:03:23.382Z,3.62
2023-11-20T13:05:54.932Z,3.62
2023-11-20T13:08:25.253Z,3.61
2023-11-20T13:11:02.979Z,3.58
2023-11-20T13:13:36.625Z,3.57
2023-11-20T13:16:17.490Z,3.55
2023-11-20T13:18:51.379Z,3.49
2023-11-20T13:21:27.662Z,3.44
2023-11-20T13:24:01.193Z,3.38
2023-11-20T13:26:29.889Z,3.36
2023-11-20T13:28:59.201Z,3.35
2023-11-20T13:31:36.152Z,3.35
2023-11-20T13:34:08.391Z,3.36
2023-11-20T13:36:39.396Z,3.37
2023-11-20T13:39:09.605Z,3.40
2023-11-20T13:41:38.459Z,3.41
2023-11-20T13:44:06.810Z,3.39
2023-11-20T13:46:38.403Z,3.37
2023-11-20T13:49:06.905Z,3.38
2023-11-20T13:51:35.027Z,3.38
2023-11-20T13:54:02.948Z,3.35
2023-11-20T13:56:31.559Z,3.34
2023-11-20T13:59:00.721Z,3.33
2023-11-20T14:01:29.335Z,3.31
2023-11-20T14:03:58.994Z,3.28
2023-11-20T14:06:27.189Z,3.28
2023-11-20T14:08:56.759Z,3.27
2023-11-20T14:11:24.796Z,3.28
2023-11-20T14:13:53.748Z,3.31
2023-11-20T14:16:24.541Z,3.31
2023-11-20T14:18:53.107Z,3.30
2023-11-20T14:21:21.922Z,3.31
2023-11-20T14:23:50.132Z,3.34
2023-11-20T14:26:29.732Z,3.37
2023-11-20T14:29:04.507Z,3.38
2023-11-20T14:31:32.915Z,3.34
2023-11-20T14:34:01.590Z,3.27
2023-11-20T14:36:30.057Z,3.25
2023-11-20T14:38:59.656Z,3.21
2023-11-20T14:41:28.336Z,3.19
2023-11-20T14:43:56.377Z,3.17
2023-11-20T14:46:24.401Z,3.15
2023-11-20T14:48:52.533Z,3.15
2023-11-20T14:51:24.153Z,3.15
2023-11-20T14:53:54.888Z,3.16
2023-11-20T14:56:23.316Z,3.12
2023-11-20T14:58:51.841Z,3.05
2023-11-20T15:01:21.370Z,2.99
2023-11-20T15:03:49.993Z,2.95
2023-11-20T15:06:19.239Z,2.91
2023-11-20T15:08:47.203Z,2.92
2023-11-20T15:11:16.324Z,2.92
2023-11-20T15:13:44.996Z,2.94
2023-11-20T15:16:13.321Z,2.96
2023-11-20T15:18:41.459Z,2.93
2023-11-20T15:21:09.500Z,2.91
2023-11-20T15:23:37.498Z,2.91
2023-11-20T15:26:05.766Z,2.93
2023-11-20T15:28:33.845Z,2.95
2023-11-20T15:31:02.353Z,2.98
2023-11-20T15:33:30.368Z,3.00
2023-11-20T15:35:58.376Z,2.99
2023-11-20T15:38:26.329Z,2.96
2023-11-20T15:40:54.654Z,2.92
2023-11-20T15:43:22.722Z,2.91
2023-11-20T15:45:54.365Z,2.90
2023-11-20T15:48:24.430Z,2.88
2023-11-20T15:50:55.618Z,2.91
2023-11-20T15:53:23.977Z,2.93
2023-11-20T15:55:52.095Z,2.96
2023-11-20T15:58:21.783Z,2.97
2023-11-20T16:00:51.044Z,2.96
2023-11-20T16:03:20.434Z,2.97
2023-11-20T16:05:49.367Z,2.98
2023-11-20T16:08:18.158Z,3.00
2023-11-20T16:10:48.672Z,2.96
2023-11-20T16:13:17.900Z,2.94
2023-11-20T16:15:47.152Z,2.92
2023-11-20T16:18:16.472Z,2.90
2023-11-20T16:20:48.649Z,2.87
2023-11-20T16:23:17.713Z,2.86
2023-11-20T16:25:48.574Z,2.86
2023-11-20T16:28:17.297Z,2.87
2023-11-20T16:30:49.960Z,2.84
2023-11-20T16:33:18.085Z,2.84
2023-11-20T16:35:46.027Z,2.81
2023-11-20T16:38:14.741Z,2.75
2023-11-20T16:40:49.461Z,2.71
2023-11-20T16:43:18.683Z,2.70
2023-11-20T16:45:50.273Z,2.70
2023-11-20T16:48:18.993Z,2.68
2023-11-20T16:50:55.302Z,2.69
2023-11-20T16:53:23.840Z,2.71
2023-11-20T16:56:03.616Z,2.68
2023-11-20T16:58:34.051Z,2.67
2023-11-20T17:01:04.057Z,2.63
2023-11-20T17:03:34.839Z,2.63
2023-11-20T17:06:05.976Z,2.61
2023-11-20T17:08:36.706Z,2.59
2023-11-20T17:11:05.748Z,2.58
2023-11-20T17:13:33.959Z,2.57
2023-11-20T17:16:02.528Z,2.57
2023-11-20T17:18:30.821Z,2.58
2023-11-20T17:20:59.185Z,2.60
2023-11-20T17:23:27.301Z,2.60
2023-11-20T17:25:55.284Z,2.60
2023-11-20T17:28:23.602Z,2.60
2023-11-20T17:30:51.704Z,2.57
2023-11-20T17:33:20.315Z,2.53
2023-11-20T17:35:48.495Z,2.51
2023-11-20T17:38:16.613Z,2.52
2023-11-20T17:40:44.947Z,2.53
2023-11-20T17:43:13.682Z,2.52
2023-11-20T17:45:43.410Z,2.53
2023-11-20T17:48:14.384Z,2.55
2023-11-20T17:50:42.478Z,2.56
2023-11-20T17:53:10.890Z,2.57
2023-11-20T17:55:40.040Z,2.59
2023-11-20T17:58:08.398Z,2.61
2023-11-20T18:00:36.825Z,2.63
2023-11-20T18:03:08.139Z,2.63
2023-11-20T18:05:41.834Z,2.62
2023-11-20T18:08:30.024Z,2.63
2023-11-20T18:10:58.148Z,2.61
2023-11-20T18:13:26.323Z,2.55
2023-11-20T18:16:10.936Z,2.54
2023-11-20T18:18:39.138Z,2.52
2023-11-20T18:21:08.417Z,2.50
2023-11-20T18:23:36.684Z,2.49
2023-11-20T18:26:05.836Z,2.48
2023-11-20T18:28:34.733Z,2.45
2023-11-20T18:31:04.737Z,2.46
2023-11-20T18:33:34.363Z,2.48
2023-11-20T18:36:04.566Z,2.49
2023-11-20T18:38:32.666Z,2.47
2023-11-20T18:41:01.444Z,2.45
2023-11-20T18:43:30.678Z,2.41
2023-11-20T18:45:59.437Z,2.38
2023-11-20T18:48:28.272Z,2.36
2023-11-20T18:50:57.003Z,2.35
2023-11-20T18:53:25.048Z,2.38
2023-11-20T18:55:53.362Z,2.36
2023-11-20T18:58:22.223Z,2.33
2023-11-20T19:00:50.383Z,2.32
2023-11-20T19:03:18.656Z,2.32
2023-11-20T19:05:46.812Z,2.32
2023-11-20T19:08:18.013Z,2.30
2023-11-20T19:10:48.530Z,2.23
2023-11-20T19:13:16.768Z,2.19
2023-11-20T19:15:44.964Z,2.15
2023-11-20T19:18:14.562Z,2.14
2023-11-20T19:20:43.022Z,2.15
2023-11-20T19:23:12.343Z,2.15
2023-11-20T19:25:41.009Z,2.16
2023-11-20T19:28:09.512Z,2.19
2023-11-20T19:30:39.915Z,2.20
2023-11-20T19:33:11.352Z,2.18
2023-11-20T19:35:41.326Z,2.19
2023-11-20T19:38:13.628Z,2.18
2023-11-20T19:40:42.032Z,2.19
2023-11-20T19:43:10.511Z,2.19
2023-11-20T19:45:39.240Z,2.15
2023-11-20T19:48:07.556Z,2.14
2023-11-20T19:50:36.431Z,2.11
2023-11-20T19:53:07.441Z,2.08
2023-11-20T19:55:35.512Z,2.08
2023-11-20T19:58:04.941Z,2.05
2023-11-20T20:00:33.944Z,2.05
2023-11-20T20:03:02.106Z,2.05
2023-11-20T20:05:30.431Z,2.06
2023-11-20T20:08:00.323Z,2.06
2023-11-20T20:10:29.325Z,2.07
2023-11-20T20:12:57.729Z,2.07
2023-11-20T20:15:26.139Z,2.05
2023-11-20T20:17:59.087Z,2.05
2023-11-20T20:20:30.874Z,2.04
2023-11-20T20:23:01.568Z,2.02
2023-11-20T20:25:31.142Z,2.01
2023-11-20T20:27:59.643Z,2.01
2023-11-20T20:30:29.511Z,1.99
2023-11-20T20:32:57.944Z,2.00
2023-11-20T20:35:28.747Z,2.01
2023-11-20T20:37:56.781Z,2.01
2023-11-20T20:40:28.829Z,1.96
2023-11-20T20:43:01.209Z,1.94
2023-11-20T20:45:30.161Z,1.96
2023-11-20T20:47:58.577Z,1.95
2023-11-20T20:50:27.296Z,1.93
2023-11-20T20:52:55.274Z,1.91
2023-11-20T20:55:23.397Z,1.90
2023-11-20T20:57:54.088Z,1.88
2023-11-20T21:00:22.513Z,1.87
2023-11-20T21:02:51.447Z,1.87
2023-11-20T21:05:19.786Z,1.88
2023-11-20T21:07:47.930Z,1.87
2023-11-20T21:10:17.941Z,1.83
2023-11-20T21:12:46.074Z,1.83
2023-11-20T21:15:15.769Z,1.84
2023-11-20T21:17:46.235Z,1.82
2023-11-20T21:20:15.934Z,1.79
2023-11-20T21:22:45.943Z,1.77
2023-11-20T21:25:14.486Z,1.74
2023-11-20T21:27:44.049Z,1.72
2023-11-20T21:30:13.223Z,1.73
2023-11-20T21:32:42.629Z,1.71
2023-11-20T21:35:11.691Z,1.70
2023-11-20T21:37:39.923Z,1.69
2023-11-20T21:40:11.045Z,1.67
2023-11-20T21:42:39.327Z,1.65
2023-11-20T21:45:08.250Z,1.60
2023-11-20T21:47:36.554Z,1.56
2023-11-20T21:50:06.063Z,1.52
2023-11-20T21:52:34.499Z,1.50
2023-11-20T21:55:03.384Z,1.48
2023-11-20T21:57:31.492Z,1.49
2023-11-20T21:59:59.433Z,1.48
2023-11-20T22:02:27.414Z,1.47
2023-11-20T22:04:55.526Z,1.48
2023-11-20T22:07:24.257Z,1.46
2023-11-20T22:09:52.847Z,1.46
2023-11-20T22:12:20.972Z,1.44
2023-11-20T22:14:48.992Z,1.42
2023-11-20T22:17:16.926Z,1.42
2023-11-20T22:19:45.000Z,1.43
2023-11-20T22:22:15.726Z,1.42
2023-11-20T22:24:43.949Z,1.43
2023-11-20T22:27:12.725Z,1.44
2023-11-20T22:29:41.926Z,1.47
2023-11-20T22:32:10.042Z,1.49
2023-11-20T22:34:38.034Z,1.51
2023-11-20T22:37:06.101Z,1.52
2023-11-20T22:39:34.381Z,1.52
2023-11-20T22:42:02.326Z,1.49
2023-11-20T22:44:30.299Z,1.47
2023-11-20T22:46:58.287Z,1.47
2023-11-20T22:49:26.417Z,1.44
2023-11-20T22:51:54.397Z,1.42
2023-11-20T22:54:24.276Z,1.39
2023-11-20T22:56:52.321Z,1.36
2023-11-20T22:59:20.524Z,1.35
2023-11-20T23:01:48.544Z,1.34
2023-11-20T23:04:17.140Z,1.33
2023-11-20T23:06:45.397Z,1.35
2023-11-20T23:09:16.933Z,1.35
2023-11-20T23:11:45.034Z,1.35
2023-11-20T23:14:13.012Z,1.36
2023-11-20T23:16:41.036Z,1.37
2023-11-20T23:19:09.075Z,1.38
2023-11-20T23:21:37.079Z,1.38
2023-11-20T23:24:06.250Z,1.39
2023-11-20T23:26:34.869Z,1.39
2023-11-20T23:29:05.637Z,1.41
2023-11-20T23:31:37.984Z,1.40
2023-11-20T23:34:06.327Z,1.40
2023-11-20T23:36:34.557Z,1.41
2023-11-20T23:39:02.671Z,1.41
2023-11-20T23:41:30.596Z,1.39
2023-11-20T23:43:58.537Z,1.40
2023-11-20T23:46:28.471Z,1.39
2023-11-20T23:48:58.188Z,1.37
2023-11-20T23:51:26.526Z,1.33
2023-11-20T23:53:54.489Z,1.32
2023-11-20T23:56:22.503Z,1.30
2023-11-20T23:58:51.122Z,1.29
